Time;durP1;ratioP1;P1;durP2;ratioP2;P2;SDS_P1;SDS_P2;PMS_P1;PMS_P2;Temp;Humidity;BMP_temperature;BMP_pressure;BME280_temperature;BME280_humidity;BME280_pressure;Samples;Min_cycle;Max_cycle;Signal;HPM_P1;HPM_P2
2021/06/22 00:04:21;;;;;;;1999.90;999.90;;;;;;;22.66;68.88;100426.13;15431007;28;20046;-74
2021/06/22 00:11:55;;;;;;;1999.90;999.90;;;;;;;22.76;69.01;100428.03;15429899;28;20531;-74
2021/06/22 00:19:29;;;;;;;1999.90;999.90;;;;;;;22.93;67.73;100476.66;15408163;28;20423;-75
2021/06/22 00:27:04;;;;;;;1999.90;999.90;;;;;;;22.63;69.10;100460.28;15383065;28;20094;-75
2021/06/22 00:34:39;;;;;;;1999.90;999.90;;;;;;;22.55;69.38;100444.53;15406825;28;20477;-75
2021/06/22 00:42:13;;;;;;;1999.90;999.90;;;;;;;22.35;70.83;100459.31;15397050;28;20085;-75
2021/06/22 00:49:47;;;;;;;1999.90;999.90;;;;;;;22.33;71.07;100478.03;15420810;28;20038;-74
2021/06/22 00:57:22;;;;;;;1999.90;999.90;;;;;;;22.31;71.46;100497.53;15400293;28;20043;-74
2021/06/22 01:04:55;;;;;;;1999.90;999.90;;;;;;;22.22;71.90;100500.03;15410131;28;20410;-75
2021/06/22 01:12:52;;;;;;;1999.90;999.90;;;;;;;22.24;72.29;100526.81;15377517;28;20087;-74
2021/06/22 01:20:30;;;;;;;1999.90;999.90;;;;;;;21.99;74.11;100504.25;15392666;28;20126;-75
2021/06/22 01:28:06;;;;;;;1999.90;999.90;;;;;;;21.83;75.17;100507.56;15415395;28;20050;-74
2021/06/22 01:35:44;;;;;;;1999.90;999.90;;;;;;;21.74;75.60;100520.59;15399057;28;20074;-75
2021/06/22 01:43:17;;;;;;;1999.90;999.90;;;;;;;21.84;75.18;100517.72;15423187;28;20178;-75
2021/06/22 01:50:52;;;;;;;1999.90;999.90;;;;;;;21.82;75.69;100533.56;15374214;29;20053;-73
2021/06/22 01:58:30;;;;;;;1999.90;999.90;;;;;;;21.81;75.78;100538.44;15376009;28;20048;-76
2021/06/22 02:06:06;;;;;;;1999.90;999.90;;;;;;;21.77;76.17;100553.84;15358836;29;20082;-76
2021/06/22 02:13:44;;;;;;;1999.90;999.90;;;;;;;21.88;75.37;100561.13;15375982;28;20463;-76
2021/06/22 02:21:26;;;;;;;1999.90;999.90;;;;;;;21.85;75.17;100570.44;15377208;28;20484;-76
2021/06/22 02:29:00;;;;;;;1999.90;999.90;;;;;;;21.94;75.47;100569.19;15368163;28;20165;-76
2021/06/22 02:36:33;;;;;;;1999.90;999.90;;;;;;;21.83;75.16;100584.25;15390047;28;20528;-76
2021/06/22 02:44:06;;;;;;;1999.90;999.90;;;;;;;22.02;74.45;100576.47;15383456;28;20054;-76
2021/06/22 02:51:46;;;;;;;1999.90;999.90;;;;;;;21.89;74.06;100582.63;15375270;28;20058;-76
2021/06/22 02:59:20;;;;;;;1999.90;999.90;;;;;;;21.87;73.88;100598.44;15416957;28;20042;-75
2021/06/22 03:06:53;;;;;;;1999.90;999.90;;;;;;;21.93;73.90;100591.09;15400900;28;20126;-75
2021/06/22 03:14:34;;;;;;;1999.90;999.90;;;;;;;21.68;74.77;100567.72;15425538;28;20530;-76
2021/06/22 03:22:19;;;;;;;1999.90;999.90;;;;;;;21.52;74.44;100605.06;15396399;28;20419;-75
2021/06/22 03:29:54;;;;;;;1999.90;999.90;;;;;;;21.63;74.59;100613.56;15416959;28;20051;-76
2021/06/22 03:37:29;;;;;;;1999.90;999.90;;;;;;;21.53;73.41;100621.69;15412184;28;20062;-76
2021/06/22 03:45:04;;;;;;;1999.90;999.90;;;;;;;21.33;74.19;100621.34;15437075;28;20046;-75
2021/06/22 03:52:37;;;;;;;1999.90;999.90;;;;;;;21.23;73.60;100624.16;15404650;28;20059;-76
2021/06/22 04:00:12;;;;;;;1999.90;999.90;;;;;;;21.00;74.01;100636.75;15380227;29;20047;-75
2021/06/22 04:07:50;;;;;;;1999.90;999.90;;;;;;;20.98;73.28;100644.88;15382087;28;20050;-76
2021/06/22 04:15:24;;;;;;;1999.90;999.90;;;;;;;21.00;73.23;100667.16;15367738;29;20518;-76
2021/06/22 04:22:58;;;;;;;1999.90;999.90;;;;;;;21.01;72.79;100683.75;15380108;29;20456;-76
2021/06/22 04:30:34;;;;;;;1999.90;999.90;;;;;;;20.65;73.24;100713.31;15423575;28;20482;-76
2021/06/22 04:38:08;;;;;;;1999.90;999.90;;;;;;;20.58;73.48;100735.97;15411604;28;20043;-75
2021/06/22 04:45:42;;;;;;;1999.90;999.90;;;;;;;20.35;73.57;100739.09;15380254;28;20047;-75
2021/06/22 04:53:19;;;;;;;1999.90;999.90;;;;;;;20.24;73.80;100732.59;15445847;23;20117;-62
2021/06/22 05:00:52;;;;;;;1999.90;999.90;;;;;;;20.30;73.42;100739.47;15439527;28;20289;-62
2021/06/22 05:08:24;;;;;;;1999.90;999.90;;;;;;;20.63;71.05;100724.22;15427937;28;20043;-60
2021/06/22 05:15:58;;;;;;;1999.90;999.90;;;;;;;20.75;70.32;100749.38;15389273;28;20106;-60
2021/06/22 05:23:30;;;;;;;1999.90;999.90;;;;;;;20.67;70.41;100742.88;15412528;28;20055;-58
2021/06/22 05:31:03;;;;;;;1999.90;999.90;;;;;;;20.58;70.25;100748.13;15389256;28;20047;-59
2021/06/22 05:38:36;;;;;;;1999.90;999.90;;;;;;;20.64;70.94;100749.34;15413965;28;20497;-60
2021/06/22 05:46:09;;;;;;;1999.90;999.90;;;;;;;20.55;71.10;100763.09;15405175;28;20043;-59
2021/06/22 05:53:42;;;;;;;1999.90;999.90;;;;;;;20.63;70.85;100766.75;15438912;28;20061;-62
2021/06/22 06:01:15;;;;;;;1999.90;999.90;;;;;;;20.42;71.01;100776.78;15436737;28;20126;-60
2021/06/22 06:08:47;;;;;;;1999.90;999.90;;;;;;;20.53;70.01;100782.53;15435785;28;20507;-58
2021/06/22 06:16:21;;;;;;;1999.90;999.90;;;;;;;20.67;69.80;100785.41;15437237;28;20085;-61
2021/06/22 06:23:56;;;;;;;1999.90;999.90;;;;;;;20.55;70.64;100796.31;15436194;28;20070;-60
2021/06/22 06:31:31;;;;;;;1999.90;999.90;;;;;;;20.62;70.41;100807.66;15435612;28;20065;-59
2021/06/22 06:39:03;;;;;;;1999.90;999.90;;;;;;;20.66;69.81;100839.66;15436158;28;20034;-60
2021/06/22 06:46:37;;;;;;;1999.90;999.90;;;;;;;20.81;69.45;100840.53;15435446;28;20051;-63
2021/06/22 06:54:09;;;;;;;1999.90;999.90;;;;;;;21.00;67.91;100843.03;15435483;28;20051;-61
2021/06/22 07:01:42;;;;;;;1999.90;999.90;;;;;;;20.60;69.93;100855.44;15435278;28;20050;-62
2021/06/22 07:09:15;;;;;;;1999.90;999.90;;;;;;;20.52;69.83;100865.09;15433262;28;20046;-61
2021/06/22 07:16:49;;;;;;;1999.90;999.90;;;;;;;20.50;69.59;100848.50;15432261;28;20047;-62
2021/06/22 07:24:21;;;;;;;1999.90;999.90;;;;;;;20.44;70.11;100845.25;15428735;28;20134;-61
2021/06/22 07:31:55;;;;;;;1999.90;999.90;;;;;;;20.30;69.77;100833.78;15420034;28;20133;-61
2021/06/22 07:39:27;;;;;;;1999.90;999.90;;;;;;;20.00;70.31;100844.53;15434798;28;20122;-61
2021/06/22 07:47:01;;;;;;;1999.90;999.90;;;;;;;19.84;71.63;100850.50;15438870;28;20039;-60
2021/06/22 07:54:33;;;;;;;1999.90;999.90;;;;;;;19.90;71.45;100837.59;15437031;28;20066;-60
2021/06/22 08:02:07;;;;;;;1999.90;999.90;;;;;;;19.79;70.77;100839.53;15442011;28;20460;-61
2021/06/22 08:09:39;;;;;;;1999.90;999.90;;;;;;;19.86;70.63;100850.91;15433761;28;20054;-63
2021/06/22 08:17:13;;;;;;;1999.90;999.90;;;;;;;20.05;68.77;100859.16;15487204;28;20054;-61
2021/06/22 08:24:45;;;;;;;1999.90;999.90;;;;;;;20.09;68.60;100871.31;15460692;28;20051;-61
2021/06/22 08:32:18;;;;;;;1999.90;999.90;;;;;;;19.75;69.00;100873.47;15455743;28;20054;-59
2021/06/22 08:39:50;;;;;;;1999.90;999.90;;;;;;;19.82;68.40;100875.56;15439570;28;20074;-61
2021/06/22 08:47:26;;;;;;;1999.90;999.90;;;;;;;19.99;67.84;100900.38;15456366;28;20463;-61
2021/06/22 08:54:59;;;;;;;1999.90;999.90;;;;;;;19.92;68.26;100900.31;15474116;28;20050;-61
2021/06/22 09:02:34;;;;;;;1999.90;999.90;;;;;;;20.07;67.54;100895.56;15467421;28;20054;-63
2021/06/22 09:10:07;;;;;;;1999.90;999.90;;;;;;;20.04;67.93;100897.19;15475846;28;20042;-61
2021/06/22 09:17:42;;;;;;;1999.90;999.90;;;;;;;20.16;67.65;100922.34;15498826;28;20050;-62
2021/06/22 09:25:15;;;;;;;1999.90;999.90;;;;;;;20.29;67.19;100941.88;15499072;28;20145;-61
2021/06/22 09:32:51;;;;;;;1999.90;999.90;;;;;;;20.07;67.29;100957.88;15498282;28;20563;-60
2021/06/22 09:40:27;;;;;;;1999.90;999.90;;;;;;;20.09;67.16;100953.44;15497964;28;20089;-61
2021/06/22 09:48:01;;;;;;;1999.90;999.90;;;;;;;20.37;66.82;100960.56;15441231;28;20040;-61
2021/06/22 09:55:35;;;;;;;1999.90;999.90;;;;;;;19.94;69.37;100968.72;15390861;28;20098;-60
2021/06/22 10:03:10;;;;;;;1999.90;999.90;;;;;;;20.50;69.73;100980.91;15432017;28;20051;-62
2021/06/22 10:10:42;;;;;;;1999.90;999.90;;;;;;;20.59;70.01;100993.53;15393876;28;20043;-63
2021/06/22 10:18:16;;;;;;;1999.90;999.90;;;;;;;20.67;69.33;101005.75;15431719;28;20049;-60
2021/06/22 10:25:49;;;;;;;1999.90;999.90;;;;;;;20.55;68.90;101009.72;15424745;28;20122;-60
2021/06/22 10:33:26;;;;;;;1999.90;999.90;;;;;;;20.57;68.90;101003.66;15389958;23;20149;-61
2021/06/22 10:40:59;;;;;;;1999.90;999.90;;;;;;;20.72;68.00;101008.19;15371440;28;20068;-62
2021/06/22 10:48:42;;;;;;;1999.90;999.90;;;;;;;21.22;68.03;101003.59;15326983;28;20048;-62
2021/06/22 10:56:17;;;;;;;1999.90;999.90;;;;;;;21.19;65.60;101010.06;15306155;29;20050;-60
2021/06/22 11:04:07;;;;;;;1999.90;999.90;;;;;;;21.37;65.58;101023.56;15308674;29;20091;-60
2021/06/22 11:11:39;;;;;;;1999.90;999.90;;;;;;;21.18;64.66;101011.28;15291843;29;20359;-60
2021/06/22 11:19:14;;;;;;;1999.90;999.90;;;;;;;21.31;64.59;101011.78;15315572;29;20075;-59
2021/06/22 11:27:13;;;;;;;1999.90;999.90;;;;;;;21.70;63.60;101014.75;15319329;29;20111;-59
2021/06/22 11:34:55;;;;;;;1999.90;999.90;;;;;;;21.61;64.13;101008.63;15274863;29;20047;-59
2021/06/22 11:42:27;;;;;;;1999.90;999.90;;;;;;;21.65;61.67;101003.75;15315821;29;20043;-61
2021/06/22 11:50:03;;;;;;;1999.90;999.90;;;;;;;22.45;61.20;101003.47;15316436;29;20043;-61
2021/06/22 11:57:35;;;;;;;1999.90;999.90;;;;;;;22.79;59.60;100997.31;15315274;29;20118;-62
2021/06/22 12:05:17;;;;;;;1999.90;999.90;;;;;;;22.54;60.27;100995.34;15340216;28;20058;-62
2021/06/22 12:12:53;;;;;;;1999.90;999.90;;;;;;;22.62;58.97;100996.13;15363943;28;20056;-60
2021/06/22 12:20:29;;;;;;;1999.90;999.90;;;;;;;23.81;56.60;101001.78;15314686;29;20521;-59
2021/06/22 12:28:01;;;;;;;1999.90;999.90;;;;;;;24.90;53.00;100998.41;15317937;29;20044;-60
2021/06/22 12:35:35;;;;;;;1999.90;999.90;;;;;;;25.89;51.58;100987.75;15316016;29;20110;-59
2021/06/22 12:43:08;;;;;;;1999.90;999.90;;;;;;;24.99;51.98;100995.84;15317480;29;20051;-60
2021/06/22 12:50:42;;;;;;;1999.90;999.90;;;;;;;24.24;55.05;100983.56;15317351;29;20184;-60
2021/06/22 12:58:15;;;;;;;1999.90;999.90;;;;;;;23.89;55.06;100986.28;15315788;29;20083;-59
2021/06/22 13:05:52;;;;;;;1999.90;999.90;;;;;;;24.61;52.84;100988.56;15318463;29;20401;-60
2021/06/22 13:13:26;;;;;;;1999.90;999.90;;;;;;;24.22;53.47;100981.13;15318510;29;20063;-58
2021/06/22 13:20:59;;;;;;;1999.90;999.90;;;;;;;24.23;53.86;100982.75;15308199;29;20107;-60
2021/06/22 13:28:31;;;;;;;1999.90;999.90;;;;;;;24.45;52.96;100980.53;15282555;29;20048;-60
2021/06/22 13:36:05;;;;;;;1999.90;999.90;;;;;;;24.80;53.65;100993.63;15258085;29;20140;-58
2021/06/22 13:43:44;;;;;;;1999.90;999.90;;;;;;;24.82;51.36;100994.03;15291757;29;20312;-58
2021/06/22 13:51:26;;;;;;;1999.90;999.90;;;;;;;25.89;49.45;100984.91;15284259;29;20052;-61
2021/06/22 13:58:59;;;;;;;1999.90;999.90;;;;;;;25.26;50.64;100990.25;15275217;29;20134;-61
2021/06/22 14:06:33;;;;;;;1999.90;999.90;;;;;;;24.60;52.71;100993.44;15312116;29;20582;-60
2021/06/22 14:14:05;;;;;;;1999.90;999.90;;;;;;;24.75;51.31;101002.66;15311862;29;20055;-59
2021/06/22 14:21:40;;;;;;;1999.90;999.90;;;;;;;25.11;51.07;101000.22;15301066;29;20476;-61
2021/06/22 14:29:12;;;;;;;1999.90;999.90;;;;;;;25.19;50.35;101018.91;15309906;29;20044;-60
2021/06/22 14:36:46;;;;;;;1999.90;999.90;;;;;;;25.30;48.59;101025.28;15308411;29;20450;-60
2021/06/22 14:44:18;;;;;;;1999.90;999.90;;;;;;;25.24;49.76;101027.00;15307194;29;20452;-60
2021/06/22 14:51:54;;;;;;;1999.90;999.90;;;;;;;24.70;51.71;101043.88;15339160;28;20071;-56
2021/06/22 14:59:27;;;;;;;1999.90;999.90;;;;;;;24.15;51.76;101061.81;15309746;29;20115;-58
2021/06/22 15:07:01;;;;;;;1999.90;999.90;;;;;;;24.44;52.07;101055.94;15308841;29;20127;-57
2021/06/22 15:14:34;;;;;;;1999.90;999.90;;;;;;;24.92;50.41;101053.03;15308774;29;20111;-60
2021/06/22 15:22:08;;;;;;;1999.90;999.90;;;;;;;25.01;50.23;101055.38;15308191;29;20130;-60
2021/06/22 15:29:41;;;;;;;1999.90;999.90;;;;;;;25.23;48.42;101041.72;15306850;29;20306;-59
2021/06/22 15:37:14;;;;;;;1999.90;999.90;;;;;;;25.14;49.85;101050.78;15308858;29;20059;-60
2021/06/22 15:44:47;;;;;;;1999.90;999.90;;;;;;;25.27;49.04;101051.84;15281672;29;20048;-59
2021/06/22 15:52:27;;;;;;;1999.90;999.90;;;;;;;25.00;49.10;101050.91;15251791;29;20050;-61
2021/06/22 15:59:59;;;;;;;1999.90;999.90;;;;;;;25.16;49.01;101056.06;15259904;29;20135;-61
2021/06/22 16:07:33;;;;;;;1999.90;999.90;;;;;;;25.30;48.43;101070.97;15319832;29;20051;-60
2021/06/22 16:15:07;;;;;;;1999.90;999.90;;;;;;;25.09;49.30;101065.50;15320965;29;20339;-60
2021/06/22 16:22:40;;;;;;;1999.90;999.90;;;;;;;24.98;49.39;101067.66;15318681;29;20070;-61
2021/06/22 16:30:14;;;;;;;1999.90;999.90;;;;;;;25.08;48.88;101083.88;15320737;29;20095;-58
2021/06/22 16:37:48;;;;;;;1999.90;999.90;;;;;;;24.71;49.05;101076.88;15402830;23;20046;-63
2021/06/22 16:45:22;;;;;;;1999.90;999.90;;;;;;;24.45;50.18;101094.63;15417982;28;20492;-63
2021/06/22 16:52:55;;;;;;;1999.90;999.90;;;;;;;24.11;49.54;101083.84;15376065;29;20048;-63
2021/06/22 17:00:29;;;;;;;1999.90;999.90;;;;;;;24.21;49.48;101084.19;15377953;28;20046;-63
2021/06/22 17:08:04;;;;;;;1999.90;999.90;;;;;;;24.33;50.07;101090.25;15376448;28;20453;-64
2021/06/22 17:15:36;;;;;;;1999.90;999.90;;;;;;;24.25;50.43;101087.81;15373461;28;20078;-63
2021/06/22 17:23:10;;;;;;;1999.90;999.90;;;;;;;23.89;51.15;101082.34;15372469;29;20045;-64
2021/06/22 17:30:42;;;;;;;1999.90;999.90;;;;;;;23.84;50.96;101077.88;15376737;28;20058;-63
2021/06/22 17:38:17;;;;;;;1999.90;999.90;;;;;;;23.99;50.96;101106.31;15362780;28;20357;-63
2021/06/22 17:45:49;;;;;;;1999.90;999.90;;;;;;;23.70;51.77;101095.06;15375427;28;20074;-64
2021/06/22 17:53:23;;;;;;;1999.90;999.90;;;;;;;23.69;52.22;101101.19;15372094;28;20114;-63
2021/06/22 18:00:56;;;;;;;1999.90;999.90;;;;;;;23.53;52.82;101113.81;15374286;28;20070;-66
2021/06/22 18:08:31;;;;;;;1999.90;999.90;;;;;;;23.23;53.93;101102.09;15373910;29;20094;-65
2021/06/22 18:16:04;;;;;;;1999.90;999.90;;;;;;;23.23;53.38;101096.41;15375065;28;20055;-65
2021/06/22 18:23:38;;;;;;;;;;;;;;;22.97;54.52;101100.56;15373779;28;20099;-65
2021/06/22 18:31:10;;;;;;;1999.90;999.90;;;;;;;22.70;56.25;101089.56;15338516;29;20305;-64
2021/06/22 18:38:44;;;;;;;1999.90;999.90;;;;;;;22.62;56.57;101104.22;15361807;29;20050;-64
2021/06/22 18:46:16;;;;;;;1999.90;999.90;;;;;;;22.48;57.09;101119.22;15372459;29;20138;-63
2021/06/22 18:53:50;;;;;;;1999.90;999.90;;;;;;;22.34;56.03;101131.41;15373431;28;20044;-65
2021/06/22 19:01:22;;;;;;;1999.90;999.90;;;;;;;22.17;56.61;101129.31;15372085;29;20107;-63
2021/06/22 19:08:56;;;;;;;1999.90;999.90;;;;;;;22.03;55.60;101130.09;15372317;28;20154;-61
2021/06/22 19:16:28;;;;;;;1999.90;999.90;;;;;;;21.86;55.85;101151.53;15373575;28;20334;-63
2021/06/22 19:24:02;;;;;;;1999.90;999.90;;;;;;;21.66;55.70;101144.53;15374980;28;20603;-65
2021/06/22 19:31:34;;;;;;;1999.90;999.90;;;;;;;21.46;56.45;101177.28;15362189;28;20048;-63
2021/06/22 19:39:08;;;;;;;1999.90;999.90;;;;;;;21.40;56.28;101182.53;15360326;28;20101;-62
2021/06/22 19:46:40;;;;;;;1999.90;999.90;;;;;;;21.22;56.23;101192.91;15381956;28;20058;-61
2021/06/22 19:54:13;;;;;;;1999.90;999.90;;;;;;;21.13;56.33;101184.75;15381926;29;20174;-63
2021/06/22 20:01:45;;;;;;;1999.90;999.90;;;;;;;20.89;56.32;101194.69;15381621;29;20485;-60
2021/06/22 20:09:19;;;;;;;1999.90;999.90;;;;;;;20.90;56.20;101187.81;15382231;28;20075;-62
2021/06/22 20:16:52;;;;;;;1999.90;999.90;;;;;;;20.74;56.53;101196.59;15382137;29;20082;-62
2021/06/22 20:24:25;;;;;;;1999.90;999.90;;;;;;;20.59;56.92;101194.81;15353650;29;20516;-62
2021/06/22 20:31:58;;;;;;;1999.90;999.90;;;;;;;20.54;57.01;101200.03;15304869;29;20135;-59
2021/06/22 20:39:31;;;;;;;1999.90;999.90;;;;;;;20.33;58.01;101197.75;15321869;29;20130;-62
2021/06/22 20:47:04;;;;;;;1999.90;999.90;;;;;;;20.25;57.30;101191.19;15362821;28;20044;-61
2021/06/22 20:54:38;;;;;;;1999.90;999.90;;;;;;;20.16;57.54;101190.69;15375556;28;20094;-62
2021/06/22 21:02:11;;;;;;;1999.90;999.90;;;;;;;19.84;59.17;101199.59;15377730;28;20072;-60
2021/06/22 21:09:45;;;;;;;1999.90;999.90;;;;;;;19.79;59.66;101207.59;15378147;28;20508;-64
2021/06/22 21:17:17;;;;;;;1999.90;999.90;;;;;;;19.63;59.55;101221.16;15373327;28;20048;-62
2021/06/22 21:24:50;;;;;;;1999.90;999.90;;;;;;;19.65;61.12;101241.41;15328762;28;20437;-62
2021/06/22 21:32:23;;;;;;;1999.90;999.90;;;;;;;19.47;60.96;101230.59;15377185;28;20110;-62
2021/06/22 21:39:56;;;;;;;1999.90;999.90;;;;;;;19.32;61.06;101245.72;15367636;29;20138;-61
2021/06/22 21:47:28;;;;;;;1999.90;999.90;;;;;;;19.17;62.04;101278.59;15363288;28;20157;-61
2021/06/22 21:55:02;;;;;;;1999.90;999.90;;;;;;;19.11;62.23;101285.78;15363685;29;20413;-59
2021/06/22 22:02:34;;;;;;;1999.90;999.90;;;;;;;19.00;62.65;101288.44;15373628;28;20126;-62
2021/06/22 22:10:09;;;;;;;1999.90;999.90;;;;;;;18.70;63.20;101293.13;15374482;28;20070;-61
2021/06/22 22:17:41;;;;;;;1999.90;999.90;;;;;;;18.48;64.30;101302.34;15375497;29;20050;-62
2021/06/22 22:25:16;;;;;;;1999.90;999.90;;;;;;;18.42;65.08;101333.72;15374393;29;20051;-61
2021/06/22 22:32:57;;;;;;;1999.90;999.90;;;;;;;18.17;65.56;101309.78;15373638;29;20082;-65
2021/06/22 22:40:31;;;;;;;1999.90;999.90;;;;;;;18.06;65.95;101320.84;15228260;29;20461;-60
2021/06/22 22:48:04;;;;;;;1999.90;999.90;;;;;;;17.91;66.63;101326.50;15248766;29;20147;-60
2021/06/22 22:55:37;;;;;;;1999.90;999.90;;;;;;;17.82;67.31;101335.19;15249717;29;20090;-59
2021/06/22 23:03:09;;;;;;;1999.90;999.90;;;;;;;17.72;67.53;101328.13;15247102;29;20052;-61
2021/06/22 23:10:43;;;;;;;1999.90;999.90;;;;;;;17.67;67.55;101307.78;15243890;29;20088;-61
2021/06/22 23:18:14;;;;;;;;;;;;;;;17.40;68.31;101310.34;15259880;29;20047;-60
2021/06/22 23:25:48;;;;;;;1999.90;999.90;;;;;;;17.33;68.26;101313.03;15260038;29;20467;-57
2021/06/22 23:33:20;;;;;;;;;;;;;;;17.36;67.69;101277.63;15262596;29;20189;-60
2021/06/22 23:40:53;;;;;;;1999.90;999.90;;;;;;;17.12;69.18;101299.19;15319620;29;19926;-59
2021/06/22 23:48:25;;;;;;;1999.90;999.90;;;;;;;17.21;68.62;101285.75;15317935;29;20086;-59
2021/06/22 23:55:59;;;;;;;1999.90;999.90;;;;;;;16.81;69.22;101300.00;15302219;29;20044;-60
